sensor_id;sensor_type;location;lat;lon;timestamp;pressure;altitude;pressure_sealevel;temperature;humidity
60920;BME280;59039;52.108;19.942;2023-01-31T00:01:49;99488.55;;;2.66;85.84
60920;BME280;59039;52.108;19.942;2023-01-31T00:04:27;99491.30;;;2.66;85.83
60920;BME280;59039;52.108;19.942;2023-01-31T00:06:53;99491.88;;;2.65;85.90
60920;BME280;59039;52.108;19.942;2023-01-31T00:09:21;99491.93;;;2.67;85.88
60920;BME280;59039;52.108;19.942;2023-01-31T00:11:47;99498.66;;;2.67;85.85
60920;BME280;59039;52.108;19.942;2023-01-31T00:14:19;99499.42;;;2.67;85.83
60920;BME280;59039;52.108;19.942;2023-01-31T00:16:56;99504.48;;;2.66;85.80
60920;BME280;59039;52.108;19.942;2023-01-31T00:19:42;99508.18;;;2.67;85.82
60920;BME280;59039;52.108;19.942;2023-01-31T00:22:27;99502.89;;;2.66;85.72
60920;BME280;59039;52.108;19.942;2023-01-31T00:24:52;99501.44;;;2.68;85.69
60920;BME280;59039;52.108;19.942;2023-01-31T00:27:18;99495.13;;;2.69;85.81
60920;BME280;59039;52.108;19.942;2023-01-31T00:29:49;99497.90;;;2.70;85.72
60920;BME280;59039;52.108;19.942;2023-01-31T00:32:34;99500.90;;;2.71;85.70
60920;BME280;59039;52.108;19.942;2023-01-31T00:35:03;99511.15;;;2.70;85.73
60920;BME280;59039;52.108;19.942;2023-01-31T00:37:29;99509.98;;;2.71;85.57
60920;BME280;59039;52.108;19.942;2023-01-31T00:40:07;99516.10;;;2.71;85.67
60920;BME280;59039;52.108;19.942;2023-01-31T00:42:39;99521.27;;;2.71;85.64
60920;BME280;59039;52.108;19.942;2023-01-31T00:45:08;99519.40;;;2.72;85.55
60920;BME280;59039;52.108;19.942;2023-01-31T00:47:50;99531.14;;;2.73;85.44
60920;BME280;59039;52.108;19.942;2023-01-31T00:50:18;99536.99;;;2.74;85.45
60920;BME280;59039;52.108;19.942;2023-01-31T00:55:40;99542.11;;;2.74;85.20
60920;BME280;59039;52.108;19.942;2023-01-31T00:58:33;99542.96;;;2.75;85.26
60920;BME280;59039;52.108;19.942;2023-01-31T01:01:06;99541.02;;;2.75;85.25
60920;BME280;59039;52.108;19.942;2023-01-31T01:03:43;99547.83;;;2.75;85.22
60920;BME280;59039;52.108;19.942;2023-01-31T01:06:09;99547.94;;;2.75;85.23
60920;BME280;59039;52.108;19.942;2023-01-31T01:08:48;99549.27;;;2.76;85.34
60920;BME280;59039;52.108;19.942;2023-01-31T01:11:21;99557.71;;;2.78;85.24
60920;BME280;59039;52.108;19.942;2023-01-31T01:13:47;99556.80;;;2.78;85.11
60920;BME280;59039;52.108;19.942;2023-01-31T01:16:17;99551.75;;;2.79;85.28
60920;BME280;59039;52.108;19.942;2023-01-31T01:18:42;99556.36;;;2.79;85.26
60920;BME280;59039;52.108;19.942;2023-01-31T01:21:12;99559.90;;;2.80;85.31
60920;BME280;59039;52.108;19.942;2023-01-31T01:23:47;99557.59;;;2.82;85.31
60920;BME280;59039;52.108;19.942;2023-01-31T01:26:27;99560.70;;;2.81;85.24
60920;BME280;59039;52.108;19.942;2023-01-31T01:28:57;99563.05;;;2.83;85.17
60920;BME280;59039;52.108;19.942;2023-01-31T01:31:26;99568.31;;;2.82;85.11
60920;BME280;59039;52.108;19.942;2023-01-31T01:33:52;99571.96;;;2.83;85.05
60920;BME280;59039;52.108;19.942;2023-01-31T01:36:20;99579.63;;;2.84;84.97
60920;BME280;59039;52.108;19.942;2023-01-31T01:38:54;99585.04;;;2.83;84.88
60920;BME280;59039;52.108;19.942;2023-01-31T01:41:25;99583.41;;;2.83;84.87
60920;BME280;59039;52.108;19.942;2023-01-31T01:46:57;99601.85;;;2.85;84.77
60920;BME280;59039;52.108;19.942;2023-01-31T01:49:50;99600.63;;;2.85;84.62
60920;BME280;59039;52.108;19.942;2023-01-31T01:52:14;99602.63;;;2.87;84.78
60920;BME280;59039;52.108;19.942;2023-01-31T01:54:59;99605.57;;;2.85;84.65
60920;BME280;59039;52.108;19.942;2023-01-31T01:57:54;99604.09;;;2.86;84.55
60920;BME280;59039;52.108;19.942;2023-01-31T02:00:26;99603.83;;;2.85;84.31
60920;BME280;59039;52.108;19.942;2023-01-31T02:03:02;99609.16;;;2.86;84.45
60920;BME280;59039;52.108;19.942;2023-01-31T02:05:37;99610.06;;;2.87;84.64
60920;BME280;59039;52.108;19.942;2023-01-31T02:08:04;99613.14;;;2.87;84.42
60920;BME280;59039;52.108;19.942;2023-01-31T02:11:03;99616.56;;;2.87;84.29
60920;BME280;59039;52.108;19.942;2023-01-31T02:13:32;99620.00;;;2.89;84.42
60920;BME280;59039;52.108;19.942;2023-01-31T02:15:58;99624.64;;;2.89;84.42
60920;BME280;59039;52.108;19.942;2023-01-31T02:18:32;99630.42;;;2.90;84.43
60920;BME280;59039;52.108;19.942;2023-01-31T02:33:08;99651.26;;;2.89;83.34
60920;BME280;59039;52.108;19.942;2023-01-31T02:36:07;99661.25;;;2.90;83.11
60920;BME280;59039;52.108;19.942;2023-01-31T02:39:06;99663.20;;;2.90;83.37
60920;BME280;59039;52.108;19.942;2023-01-31T02:47:50;99679.89;;;2.89;83.61
60920;BME280;59039;52.108;19.942;2023-01-31T02:50:30;99682.19;;;2.90;83.22
60920;BME280;59039;52.108;19.942;2023-01-31T02:55:59;99693.59;;;2.88;83.24
60920;BME280;59039;52.108;19.942;2023-01-31T02:58:33;99694.19;;;2.87;82.87
60920;BME280;59039;52.108;19.942;2023-01-31T03:01:02;99702.36;;;2.86;82.88
60920;BME280;59039;52.108;19.942;2023-01-31T03:03:32;99707.86;;;2.84;82.76
60920;BME280;59039;52.108;19.942;2023-01-31T03:09:20;99718.27;;;2.84;82.52
60920;BME280;59039;52.108;19.942;2023-01-31T03:18:07;99726.58;;;2.81;81.72
60920;BME280;59039;52.108;19.942;2023-01-31T03:23:36;99732.05;;;2.81;81.64
60920;BME280;59039;52.108;19.942;2023-01-31T03:26:15;99734.40;;;2.81;81.82
60920;BME280;59039;52.108;19.942;2023-01-31T03:28:42;99745.11;;;2.81;81.80
60920;BME280;59039;52.108;19.942;2023-01-31T03:31:16;99751.17;;;2.82;81.88
60920;BME280;59039;52.108;19.942;2023-01-31T03:34:04;99752.84;;;2.83;81.87
60920;BME280;59039;52.108;19.942;2023-01-31T03:42:11;99763.96;;;2.85;81.55
60920;BME280;59039;52.108;19.942;2023-01-31T03:45:06;99767.10;;;2.86;81.97
60920;BME280;59039;52.108;19.942;2023-01-31T03:50:55;99775.94;;;2.87;81.98
60920;BME280;59039;52.108;19.942;2023-01-31T03:55:54;99786.10;;;2.86;81.41
60920;BME280;59039;52.108;19.942;2023-01-31T03:58:25;99790.93;;;2.83;81.65
60920;BME280;59039;52.108;19.942;2023-01-31T04:01:01;99796.67;;;2.83;82.06
60920;BME280;59039;52.108;19.942;2023-01-31T04:03:44;99804.01;;;2.83;81.88
60920;BME280;59039;52.108;19.942;2023-01-31T04:06:14;99810.23;;;2.84;81.64
60920;BME280;59039;52.108;19.942;2023-01-31T04:08:52;99814.33;;;2.84;81.52
60920;BME280;59039;52.108;19.942;2023-01-31T04:11:19;99819.73;;;2.84;81.61
60920;BME280;59039;52.108;19.942;2023-01-31T04:13:48;99820.55;;;2.82;81.65
60920;BME280;59039;52.108;19.942;2023-01-31T04:16:34;99827.77;;;2.81;81.62
60920;BME280;59039;52.108;19.942;2023-01-31T04:19:00;99829.77;;;2.81;81.93
60920;BME280;59039;52.108;19.942;2023-01-31T04:21:34;99833.52;;;2.81;81.85
60920;BME280;59039;52.108;19.942;2023-01-31T04:24:00;99843.65;;;2.82;81.99
60920;BME280;59039;52.108;19.942;2023-01-31T04:26:45;99844.61;;;2.81;81.74
60920;BME280;59039;52.108;19.942;2023-01-31T04:29:14;99847.73;;;2.82;81.81
60920;BME280;59039;52.108;19.942;2023-01-31T04:31:40;99845.48;;;2.82;81.51
60920;BME280;59039;52.108;19.942;2023-01-31T04:34:26;99840.52;;;2.81;81.76
60920;BME280;59039;52.108;19.942;2023-01-31T04:37:12;99840.20;;;2.80;81.59
60920;BME280;59039;52.108;19.942;2023-01-31T04:39:40;99835.08;;;2.80;81.53
60920;BME280;59039;52.108;19.942;2023-01-31T04:42:07;99841.83;;;2.78;81.48
60920;BME280;59039;52.108;19.942;2023-01-31T04:44:35;99845.36;;;2.76;81.24
60920;BME280;59039;52.108;19.942;2023-01-31T04:47:21;99846.20;;;2.75;81.23
60920;BME280;59039;52.108;19.942;2023-01-31T04:49:46;99849.21;;;2.72;81.26
60920;BME280;59039;52.108;19.942;2023-01-31T04:52:15;99846.48;;;2.71;81.57
60920;BME280;59039;52.108;19.942;2023-01-31T04:54:42;99849.67;;;2.69;81.39
60920;BME280;59039;52.108;19.942;2023-01-31T04:57:08;99846.98;;;2.64;81.51
60920;BME280;59039;52.108;19.942;2023-01-31T04:59:33;99855.23;;;2.62;81.53
60920;BME280;59039;52.108;19.942;2023-01-31T05:02:02;99856.30;;;2.59;81.44
60920;BME280;59039;52.108;19.942;2023-01-31T05:04:35;99863.79;;;2.55;81.45
60920;BME280;59039;52.108;19.942;2023-01-31T05:07:00;99864.52;;;2.52;81.58
60920;BME280;59039;52.108;19.942;2023-01-31T05:09:26;99869.50;;;2.50;81.69
60920;BME280;59039;52.108;19.942;2023-01-31T05:11:59;99877.29;;;2.49;81.79
60920;BME280;59039;52.108;19.942;2023-01-31T05:14:27;99880.05;;;2.48;81.71
60920;BME280;59039;52.108;19.942;2023-01-31T05:16:55;99884.45;;;2.49;82.04
60920;BME280;59039;52.108;19.942;2023-01-31T05:19:21;99894.52;;;2.48;81.86
60920;BME280;59039;52.108;19.942;2023-01-31T05:21:47;99894.70;;;2.48;81.64
60920;BME280;59039;52.108;19.942;2023-01-31T05:24:22;99899.57;;;2.48;81.75
60920;BME280;59039;52.108;19.942;2023-01-31T05:26:55;99909.33;;;2.46;81.80
60920;BME280;59039;52.108;19.942;2023-01-31T05:29:25;99917.45;;;2.45;81.81
60920;BME280;59039;52.108;19.942;2023-01-31T05:31:55;99927.91;;;2.47;81.72
60920;BME280;59039;52.108;19.942;2023-01-31T05:34:25;99931.10;;;2.47;81.81
60920;BME280;59039;52.108;19.942;2023-01-31T05:36:51;99932.89;;;2.47;81.72
60920;BME280;59039;52.108;19.942;2023-01-31T05:39:17;99940.80;;;2.44;81.39
60920;BME280;59039;52.108;19.942;2023-01-31T05:41:42;99947.94;;;2.44;81.73
60920;BME280;59039;52.108;19.942;2023-01-31T05:44:08;99952.45;;;2.44;81.56
60920;BME280;59039;52.108;19.942;2023-01-31T05:46:36;99952.94;;;2.44;81.64
60920;BME280;59039;52.108;19.942;2023-01-31T05:49:02;99957.04;;;2.47;81.68
60920;BME280;59039;52.108;19.942;2023-01-31T05:51:33;99966.70;;;2.47;81.50
60920;BME280;59039;52.108;19.942;2023-01-31T05:53:58;99970.63;;;2.47;81.41
60920;BME280;59039;52.108;19.942;2023-01-31T05:56:26;99975.59;;;2.47;81.55
60920;BME280;59039;52.108;19.942;2023-01-31T06:01:30;99987.54;;;2.48;81.34
60920;BME280;59039;52.108;19.942;2023-01-31T06:03:55;99988.77;;;2.48;81.63
60920;BME280;59039;52.108;19.942;2023-01-31T06:06:21;99986.05;;;2.49;81.67
60920;BME280;59039;52.108;19.942;2023-01-31T06:08:47;100000.30;;;2.47;81.08
60920;BME280;59039;52.108;19.942;2023-01-31T06:11:13;100004.45;;;2.46;80.98
60920;BME280;59039;52.108;19.942;2023-01-31T06:13:42;100006.46;;;2.46;80.87
60920;BME280;59039;52.108;19.942;2023-01-31T06:16:11;100010.72;;;2.46;80.94
60920;BME280;59039;52.108;19.942;2023-01-31T06:18:36;100013.72;;;2.47;80.83
60920;BME280;59039;52.108;19.942;2023-01-31T06:21:02;100019.23;;;2.47;80.64
60920;BME280;59039;52.108;19.942;2023-01-31T06:23:30;100025.83;;;2.48;80.77
60920;BME280;59039;52.108;19.942;2023-01-31T06:25:56;100032.45;;;2.47;80.50
60920;BME280;59039;52.108;19.942;2023-01-31T06:28:22;100040.02;;;2.47;80.52
60920;BME280;59039;52.108;19.942;2023-01-31T06:30:47;100048.94;;;2.47;80.96
60920;BME280;59039;52.108;19.942;2023-01-31T06:33:13;100052.76;;;2.46;80.85
60920;BME280;59039;52.108;19.942;2023-01-31T06:35:51;100058.04;;;2.45;80.86
60920;BME280;59039;52.108;19.942;2023-01-31T06:38:32;100060.17;;;2.43;80.04
60920;BME280;59039;52.108;19.942;2023-01-31T06:41:21;100065.65;;;2.41;79.80
60920;BME280;59039;52.108;19.942;2023-01-31T06:43:46;100064.64;;;2.40;79.74
60920;BME280;59039;52.108;19.942;2023-01-31T06:46:18;100068.40;;;2.40;79.89
60920;BME280;59039;52.108;19.942;2023-01-31T06:48:43;100070.22;;;2.40;80.00
60920;BME280;59039;52.108;19.942;2023-01-31T06:51:15;100072.31;;;2.38;79.64
60920;BME280;59039;52.108;19.942;2023-01-31T06:53:40;100074.66;;;2.38;80.32
60920;BME280;59039;52.108;19.942;2023-01-31T06:56:06;100070.73;;;2.37;80.35
60920;BME280;59039;52.108;19.942;2023-01-31T06:58:32;100071.45;;;2.37;80.45
60920;BME280;59039;52.108;19.942;2023-01-31T07:01:24;100072.55;;;2.37;80.45
60920;BME280;59039;52.108;19.942;2023-01-31T07:03:58;100081.26;;;2.38;80.26
60920;BME280;59039;52.108;19.942;2023-01-31T07:07:05;100089.11;;;2.38;80.32
60920;BME280;59039;52.108;19.942;2023-01-31T07:09:40;100090.21;;;2.38;80.42
60920;BME280;59039;52.108;19.942;2023-01-31T07:12:24;100091.54;;;2.37;79.88
60920;BME280;59039;52.108;19.942;2023-01-31T07:15:08;100092.43;;;2.37;80.22
60920;BME280;59039;52.108;19.942;2023-01-31T07:17:45;100095.76;;;2.38;80.49
60920;BME280;59039;52.108;19.942;2023-01-31T07:20:16;100097.04;;;2.38;80.08
60920;BME280;59039;52.108;19.942;2023-01-31T07:22:41;100097.44;;;2.37;79.98
60920;BME280;59039;52.108;19.942;2023-01-31T07:25:12;100106.36;;;2.34;79.42
60920;BME280;59039;52.108;19.942;2023-01-31T07:30:24;100110.83;;;2.35;79.96
60920;BME280;59039;52.108;19.942;2023-01-31T07:32:52;100113.57;;;2.34;79.54
60920;BME280;59039;52.108;19.942;2023-01-31T07:35:31;100115.96;;;2.33;79.51
60920;BME280;59039;52.108;19.942;2023-01-31T07:38:17;100119.52;;;2.33;79.06
60920;BME280;59039;52.108;19.942;2023-01-31T07:40:44;100122.11;;;2.34;79.50
60920;BME280;59039;52.108;19.942;2023-01-31T07:43:10;100123.02;;;2.36;79.77
60920;BME280;59039;52.108;19.942;2023-01-31T07:45:35;100125.60;;;2.38;79.54
60920;BME280;59039;52.108;19.942;2023-01-31T07:48:03;100127.59;;;2.40;79.91
60920;BME280;59039;52.108;19.942;2023-01-31T07:50:29;100127.63;;;2.42;79.49
60920;BME280;59039;52.108;19.942;2023-01-31T07:52:59;100131.81;;;2.46;79.93
60920;BME280;59039;52.108;19.942;2023-01-31T07:55:25;100137.60;;;2.47;79.00
60920;BME280;59039;52.108;19.942;2023-01-31T07:57:53;100143.70;;;2.49;79.03
60920;BME280;59039;52.108;19.942;2023-01-31T08:00:19;100148.20;;;2.52;79.08
60920;BME280;59039;52.108;19.942;2023-01-31T08:02:47;100148.82;;;2.53;78.83
60920;BME280;59039;52.108;19.942;2023-01-31T08:05:12;100154.85;;;2.57;79.83
60920;BME280;59039;52.108;19.942;2023-01-31T08:07:38;100152.34;;;2.59;79.39
60920;BME280;59039;52.108;19.942;2023-01-31T08:10:09;100156.08;;;2.59;78.44
60920;BME280;59039;52.108;19.942;2023-01-31T08:12:35;100160.45;;;2.61;78.33
60920;BME280;59039;52.108;19.942;2023-01-31T08:15:00;100161.05;;;2.62;78.08
60920;BME280;59039;52.108;19.942;2023-01-31T08:17:40;100162.55;;;2.64;77.90
60920;BME280;59039;52.108;19.942;2023-01-31T08:20:06;100164.59;;;2.65;78.83
60920;BME280;59039;52.108;19.942;2023-01-31T08:22:32;100163.21;;;2.67;78.45
60920;BME280;59039;52.108;19.942;2023-01-31T08:25:00;100162.45;;;2.67;78.17
60920;BME280;59039;52.108;19.942;2023-01-31T08:27:25;100162.29;;;2.67;77.40
60920;BME280;59039;52.108;19.942;2023-01-31T08:29:51;100165.08;;;2.68;78.08
60920;BME280;59039;52.108;19.942;2023-01-31T08:32:16;100164.00;;;2.71;77.99
60920;BME280;59039;52.108;19.942;2023-01-31T08:34:44;100166.24;;;2.72;77.95
60920;BME280;59039;52.108;19.942;2023-01-31T08:39:55;100166.39;;;2.78;77.87
60920;BME280;59039;52.108;19.942;2023-01-31T08:42:30;100168.21;;;2.80;78.38
60920;BME280;59039;52.108;19.942;2023-01-31T08:44:58;100171.92;;;2.80;77.21
60920;BME280;59039;52.108;19.942;2023-01-31T08:47:24;100176.42;;;2.82;77.90
60920;BME280;59039;52.108;19.942;2023-01-31T08:49:49;100181.96;;;2.85;77.41
60920;BME280;59039;52.108;19.942;2023-01-31T08:52:17;100183.05;;;2.87;77.30
60920;BME280;59039;52.108;19.942;2023-01-31T08:54:46;100184.73;;;2.89;77.08
60920;BME280;59039;52.108;19.942;2023-01-31T08:57:11;100185.45;;;2.91;76.96
60920;BME280;59039;52.108;19.942;2023-01-31T09:00:00;100182.22;;;2.94;77.37
60920;BME280;59039;52.108;19.942;2023-01-31T09:02:25;100188.22;;;2.95;76.75
60920;BME280;59039;52.108;19.942;2023-01-31T09:04:51;100191.65;;;2.97;76.61
60920;BME280;59039;52.108;19.942;2023-01-31T09:07:19;100191.35;;;2.99;75.55
60920;BME280;59039;52.108;19.942;2023-01-31T09:09:44;100197.08;;;3.01;75.47
60920;BME280;59039;52.108;19.942;2023-01-31T09:12:13;100199.13;;;3.05;75.20
60920;BME280;59039;52.108;19.942;2023-01-31T09:14:41;100202.48;;;3.08;75.14
60920;BME280;59039;52.108;19.942;2023-01-31T09:17:07;100208.41;;;3.12;75.32
60920;BME280;59039;52.108;19.942;2023-01-31T09:19:32;100216.48;;;3.18;75.25
60920;BME280;59039;52.108;19.942;2023-01-31T09:22:03;100217.98;;;3.21;74.75
60920;BME280;59039;52.108;19.942;2023-01-31T09:24:31;100218.70;;;3.23;73.85
60920;BME280;59039;52.108;19.942;2023-01-31T09:27:10;100223.38;;;3.28;75.23
60920;BME280;59039;52.108;19.942;2023-01-31T09:29:59;100224.77;;;3.31;74.51
60920;BME280;59039;52.108;19.942;2023-01-31T09:32:29;100228.39;;;3.33;75.31
60920;BME280;59039;52.108;19.942;2023-01-31T09:34:55;100228.83;;;3.34;74.64
60920;BME280;59039;52.108;19.942;2023-01-31T09:37:20;100232.06;;;3.37;75.21
60920;BME280;59039;52.108;19.942;2023-01-31T09:39:54;100238.74;;;3.39;73.52
60920;BME280;59039;52.108;19.942;2023-01-31T09:45:45;100244.80;;;3.44;73.79
60920;BME280;59039;52.108;19.942;2023-01-31T09:48:21;100239.23;;;3.46;73.36
60920;BME280;59039;52.108;19.942;2023-01-31T09:51:11;100241.77;;;3.48;73.25
60920;BME280;59039;52.108;19.942;2023-01-31T09:53:41;100242.52;;;3.50;73.91
60920;BME280;59039;52.108;19.942;2023-01-31T09:56:47;100243.67;;;3.51;73.75
60920;BME280;59039;52.108;19.942;2023-01-31T09:59:29;100238.31;;;3.54;74.03
60920;BME280;59039;52.108;19.942;2023-01-31T10:02:01;100239.15;;;3.54;73.64
60920;BME280;59039;52.108;19.942;2023-01-31T10:14:12;100235.50;;;3.58;73.80
60920;BME280;59039;52.108;19.942;2023-01-31T10:16:39;100233.95;;;3.60;73.04
60920;BME280;59039;52.108;19.942;2023-01-31T10:19:44;100235.81;;;3.58;72.36
60920;BME280;59039;52.108;19.942;2023-01-31T10:22:16;100235.82;;;3.59;73.61
60920;BME280;59039;52.108;19.942;2023-01-31T10:25:47;100231.83;;;3.59;74.13
60920;BME280;59039;52.108;19.942;2023-01-31T10:30:57;100232.23;;;3.61;72.41
60920;BME280;59039;52.108;19.942;2023-01-31T10:36:32;100231.52;;;3.63;72.39
60920;BME280;59039;52.108;19.942;2023-01-31T10:38:59;100233.20;;;3.65;71.71
60920;BME280;59039;52.108;19.942;2023-01-31T10:44:51;100236.35;;;3.61;70.39
60920;BME280;59039;52.108;19.942;2023-01-31T10:47:19;100241.49;;;3.59;69.31
60920;BME280;59039;52.108;19.942;2023-01-31T10:49:52;100244.08;;;3.59;70.65
60920;BME280;59039;52.108;19.942;2023-01-31T10:52:44;100243.10;;;3.59;70.17
60920;BME280;59039;52.108;19.942;2023-01-31T11:00:50;100242.56;;;3.69;69.76
60920;BME280;59039;52.108;19.942;2023-01-31T11:03:20;100247.52;;;3.70;67.78
60920;BME280;59039;52.108;19.942;2023-01-31T11:08:49;100249.34;;;3.74;68.39
60920;BME280;59039;52.108;19.942;2023-01-31T11:11:21;100247.17;;;3.77;68.05
60920;BME280;59039;52.108;19.942;2023-01-31T11:14:16;100246.85;;;3.76;66.91
60920;BME280;59039;52.108;19.942;2023-01-31T11:17:27;100251.08;;;3.75;67.15
60920;BME280;59039;52.108;19.942;2023-01-31T11:22:03;100250.73;;;3.74;68.06
60920;BME280;59039;52.108;19.942;2023-01-31T11:24:32;100246.98;;;3.74;67.10
60920;BME280;59039;52.108;19.942;2023-01-31T11:27:03;100250.55;;;3.72;65.96
60920;BME280;59039;52.108;19.942;2023-01-31T11:29:58;100243.36;;;3.68;65.99
60920;BME280;59039;52.108;19.942;2023-01-31T11:32:42;100242.98;;;3.66;66.37
60920;BME280;59039;52.108;19.942;2023-01-31T11:40:42;100235.09;;;3.61;66.91
60920;BME280;59039;52.108;19.942;2023-01-31T11:43:32;100231.76;;;3.60;66.81
60920;BME280;59039;52.108;19.942;2023-01-31T11:45:59;100226.52;;;3.61;67.74
60920;BME280;59039;52.108;19.942;2023-01-31T11:48:44;100225.02;;;3.59;67.34
60920;BME280;59039;52.108;19.942;2023-01-31T11:51:33;100219.90;;;3.58;66.69
60920;BME280;59039;52.108;19.942;2023-01-31T11:53:57;100215.20;;;3.59;65.97
60920;BME280;59039;52.108;19.942;2023-01-31T11:56:28;100218.60;;;3.61;67.24
60920;BME280;59039;52.108;19.942;2023-01-31T11:59:36;100215.79;;;3.63;67.12
60920;BME280;59039;52.108;19.942;2023-01-31T12:02:25;100219.92;;;3.65;66.22
60920;BME280;59039;52.108;19.942;2023-01-31T12:05:02;100214.05;;;3.64;66.53
60920;BME280;59039;52.108;19.942;2023-01-31T12:07:41;100217.15;;;3.64;66.48
60920;BME280;59039;52.108;19.942;2023-01-31T12:10:30;100215.37;;;3.64;66.58
60920;BME280;59039;52.108;19.942;2023-01-31T12:13:01;100206.30;;;3.65;67.20
60920;BME280;59039;52.108;19.942;2023-01-31T12:18:09;100203.83;;;3.65;67.08
60920;BME280;59039;52.108;19.942;2023-01-31T12:20:59;100202.10;;;3.64;66.51
60920;BME280;59039;52.108;19.942;2023-01-31T12:23:54;100205.02;;;3.63;66.60
60920;BME280;59039;52.108;19.942;2023-01-31T12:26:51;100204.52;;;3.63;67.55
60920;BME280;59039;52.108;19.942;2023-01-31T12:32:42;100203.27;;;3.60;66.95
60920;BME280;59039;52.108;19.942;2023-01-31T12:35:28;100195.92;;;3.60;67.66
60920;BME280;59039;52.108;19.942;2023-01-31T12:41:39;100194.66;;;3.55;65.70
60920;BME280;59039;52.108;19.942;2023-01-31T12:50:13;100188.20;;;3.53;66.12
60920;BME280;59039;52.108;19.942;2023-01-31T12:56:05;100181.89;;;3.54;66.36
60920;BME280;59039;52.108;19.942;2023-01-31T12:59:59;100182.75;;;3.57;67.67
60920;BME280;59039;52.108;19.942;2023-01-31T13:02:26;100179.60;;;3.60;68.56
60920;BME280;59039;52.108;19.942;2023-01-31T13:11:02;100179.73;;;3.68;68.06
60920;BME280;59039;52.108;19.942;2023-01-31T13:13:42;100174.91;;;3.70;68.45
60920;BME280;59039;52.108;19.942;2023-01-31T13:19:54;100179.38;;;3.73;68.30
60920;BME280;59039;52.108;19.942;2023-01-31T13:22:45;100172.92;;;3.75;68.68
60920;BME280;59039;52.108;19.942;2023-01-31T13:30:42;100171.80;;;3.76;68.20
60920;BME280;59039;52.108;19.942;2023-01-31T13:33:26;100166.19;;;3.74;68.13
60920;BME280;59039;52.108;19.942;2023-01-31T13:38:43;100158.92;;;3.73;68.57
60920;BME280;59039;52.108;19.942;2023-01-31T13:41:40;100160.98;;;3.72;68.38
60920;BME280;59039;52.108;19.942;2023-01-31T13:44:07;100158.54;;;3.71;67.94
60920;BME280;59039;52.108;19.942;2023-01-31T13:46:44;100157.62;;;3.71;68.37
60920;BME280;59039;52.108;19.942;2023-01-31T13:49:25;100155.06;;;3.72;68.42
60920;BME280;59039;52.108;19.942;2023-01-31T13:51:55;100152.09;;;3.71;68.79
60920;BME280;59039;52.108;19.942;2023-01-31T13:54:37;100151.09;;;3.70;68.18
60920;BME280;59039;52.108;19.942;2023-01-31T13:57:05;100144.71;;;3.67;67.04
60920;BME280;59039;52.108;19.942;2023-01-31T13:59:36;100143.62;;;3.65;68.43
60920;BME280;59039;52.108;19.942;2023-01-31T14:02:16;100141.59;;;3.63;68.64
60920;BME280;59039;52.108;19.942;2023-01-31T14:04:42;100135.34;;;3.63;69.12
60920;BME280;59039;52.108;19.942;2023-01-31T14:07:22;100135.66;;;3.61;68.93
60920;BME280;59039;52.108;19.942;2023-01-31T14:15:43;100121.25;;;3.58;69.03
60920;BME280;59039;52.108;19.942;2023-01-31T14:18:00;100120.52;;;3.56;69.05
60920;BME280;59039;52.108;19.942;2023-01-31T14:20:34;100119.20;;;3.53;69.08
60920;BME280;59039;52.108;19.942;2023-01-31T14:29:15;100118.31;;;3.53;69.72
60920;BME280;59039;52.108;19.942;2023-01-31T14:31:45;100119.89;;;3.54;70.08
60920;BME280;59039;52.108;19.942;2023-01-31T14:34:32;100118.42;;;3.54;69.94
60920;BME280;59039;52.108;19.942;2023-01-31T14:37:23;100122.31;;;3.55;70.08
60920;BME280;59039;52.108;19.942;2023-01-31T14:46:11;100111.85;;;3.54;70.11
60920;BME280;59039;52.108;19.942;2023-01-31T14:51:43;100101.04;;;3.54;70.16
60920;BME280;59039;52.108;19.942;2023-01-31T15:00:23;100090.16;;;3.54;69.97
60920;BME280;59039;52.108;19.942;2023-01-31T15:02:54;100098.64;;;3.53;70.23
60920;BME280;59039;52.108;19.942;2023-01-31T15:05:46;100101.41;;;3.52;70.29
60920;BME280;59039;52.108;19.942;2023-01-31T15:11:05;100098.29;;;3.46;70.15
60920;BME280;59039;52.108;19.942;2023-01-31T15:13:58;100100.76;;;3.42;70.19
60920;BME280;59039;52.108;19.942;2023-01-31T15:16:30;100096.30;;;3.37;70.26
60920;BME280;59039;52.108;19.942;2023-01-31T15:19:20;100092.23;;;3.31;70.31
60920;BME280;59039;52.108;19.942;2023-01-31T15:21:49;100091.34;;;3.27;70.28
60920;BME280;59039;52.108;19.942;2023-01-31T15:24:39;100087.69;;;3.23;70.43
60920;BME280;59039;52.108;19.942;2023-01-31T15:27:34;100087.09;;;3.19;70.49
60920;BME280;59039;52.108;19.942;2023-01-31T15:32:42;100089.17;;;3.15;70.98
60920;BME280;59039;52.108;19.942;2023-01-31T15:35:22;100090.60;;;3.13;71.13
60920;BME280;59039;52.108;19.942;2023-01-31T15:38:08;100091.85;;;3.10;71.17
60920;BME280;59039;52.108;19.942;2023-01-31T15:40:45;100089.92;;;3.10;71.28
60920;BME280;59039;52.108;19.942;2023-01-31T15:43:17;100090.69;;;3.09;71.43
60920;BME280;59039;52.108;19.942;2023-01-31T15:45:45;100089.92;;;3.07;71.40
60920;BME280;59039;52.108;19.942;2023-01-31T15:48:13;100089.55;;;3.08;71.64
60920;BME280;59039;52.108;19.942;2023-01-31T15:53:15;100096.05;;;3.04;71.65
60920;BME280;59039;52.108;19.942;2023-01-31T15:55:41;100092.27;;;3.03;71.80
60920;BME280;59039;52.108;19.942;2023-01-31T15:58:16;100094.30;;;3.02;71.80
60920;BME280;59039;52.108;19.942;2023-01-31T16:00:42;100092.73;;;3.01;71.90
60920;BME280;59039;52.108;19.942;2023-01-31T16:05:58;100086.83;;;3.01;71.89
60920;BME280;59039;52.108;19.942;2023-01-31T16:08:31;100080.91;;;3.01;71.82
60920;BME280;59039;52.108;19.942;2023-01-31T16:10:57;100075.48;;;3.02;71.87
60920;BME280;59039;52.108;19.942;2023-01-31T16:13:24;100073.33;;;3.02;71.82
60920;BME280;59039;52.108;19.942;2023-01-31T16:15:53;100066.73;;;3.02;71.86
60920;BME280;59039;52.108;19.942;2023-01-31T16:18:19;100068.51;;;3.02;72.03
60920;BME280;59039;52.108;19.942;2023-01-31T16:20:52;100061.73;;;3.02;71.88
60920;BME280;59039;52.108;19.942;2023-01-31T16:23:28;100059.37;;;3.02;72.25